QTR40 SEQM-KMIA
Flight info
| Callsign | QTR40 |
|---|---|
| Flight time | N/A |
| Altitude | 32000 |
| Route | NEGAL3A NEGAL UM674 TBG UL780 DAGUD/N0488F340 UL780 ULBAS UG437 ALTIB UM779 ZEUSS VIICE2 |
| Aircraft | B77L/H-SDE1E2E3FGHIJ2J3J4J5M1RWXY/LB1D1 |
Departure
| Time | N/A |
|---|---|
| Airport | Mariscal Sucre International Airport (SEQM) |
Arrival
| Time | 2026-05-04 03:53 |
|---|---|
| Airport | Miami International Airport (KMIA) |
| Time | Latitude | Longitude | Altitude | Speed | Heading |
|---|---|---|---|---|---|
| 2026-05-04 02:58 | 21.43047 | -79.12975 | 33918 ft | 477 kts | 11° |
| 2026-05-04 02:59 | 21.46207 | -79.11818 | 34011 ft | 484 kts | 16° |
| 2026-05-04 02:59 | 21.52548 | -79.09129 | 34057 ft | 495 kts | 17° |
| 2026-05-04 03:00 | 21.58995 | -79.06348 | 34060 ft | 503 kts | 17° |
| 2026-05-04 03:00 | 21.65505 | -79.03591 | 34058 ft | 504 kts | 17° |
| 2026-05-04 03:01 | 21.72038 | -79.00825 | 34052 ft | 505 kts | 17° |
| 2026-05-04 03:01 | 21.78555 | -78.98042 | 34054 ft | 504 kts | 17° |
| 2026-05-04 03:02 | 21.85084 | -78.95293 | 34055 ft | 503 kts | 16° |
| 2026-05-04 03:02 | 21.91608 | -78.92567 | 34060 ft | 502 kts | 16° |
| 2026-05-04 03:03 | 21.98121 | -78.89846 | 34060 ft | 502 kts | 16° |
| 2026-05-04 03:03 | 22.04624 | -78.87125 | 34050 ft | 501 kts | 15° |
| 2026-05-04 03:04 | 22.11119 | -78.84402 | 34066 ft | 501 kts | 15° |
| 2026-05-04 03:04 | 22.17622 | -78.81673 | 34062 ft | 501 kts | 15° |
| 2026-05-04 03:05 | 22.24129 | -78.78940 | 34068 ft | 502 kts | 16° |
| 2026-05-04 03:05 | 22.29582 | -78.76647 | 34068 ft | 503 kts | 16° |
| 2026-05-04 03:06 | 22.36103 | -78.73903 | 34068 ft | 503 kts | 16° |
| 2026-05-04 03:06 | 22.42625 | -78.71155 | 34065 ft | 503 kts | 16° |
| 2026-05-04 03:07 | 22.49155 | -78.68401 | 34077 ft | 503 kts | 15° |
| 2026-05-04 03:07 | 22.55629 | -78.65665 | 34055 ft | 497 kts | 16° |
| 2026-05-04 03:08 | 22.62051 | -78.62952 | 34060 ft | 495 kts | 15° |
| 2026-05-04 03:08 | 22.68465 | -78.60240 | 34060 ft | 494 kts | 16° |
| 2026-05-04 03:09 | 22.74917 | -78.57738 | 34051 ft | 488 kts | 7° |
| 2026-05-04 03:09 | 22.81555 | -78.57136 | 34063 ft | 474 kts | 351° |
| 2026-05-04 03:10 | 22.88009 | -78.58212 | 34063 ft | 469 kts | 343° |
| 2026-05-04 03:10 | 22.94441 | -78.59509 | 34057 ft | 471 kts | 343° |
| 2026-05-04 03:11 | 23.00902 | -78.60773 | 34055 ft | 473 kts | 344° |
| 2026-05-04 03:11 | 23.07394 | -78.62005 | 34052 ft | 474 kts | 344° |
| 2026-05-04 03:12 | 23.13902 | -78.63229 | 34051 ft | 475 kts | 344° |
| 2026-05-04 03:12 | 23.20409 | -78.64455 | 34050 ft | 475 kts | 344° |
| 2026-05-04 03:13 | 23.26924 | -78.65685 | 34050 ft | 475 kts | 344° |
| 2026-05-04 03:13 | 23.33439 | -78.66918 | 34048 ft | 475 kts | 344° |
| 2026-05-04 03:14 | 23.39951 | -78.68152 | 34050 ft | 476 kts | 344° |
| 2026-05-04 03:14 | 23.46481 | -78.69390 | 34049 ft | 477 kts | 344° |
| 2026-05-04 03:15 | 23.53023 | -78.70632 | 34053 ft | 478 kts | 344° |
| 2026-05-04 03:15 | 23.59577 | -78.71877 | 34046 ft | 479 kts | 344° |
| 2026-05-04 03:16 | 23.66155 | -78.73127 | 34052 ft | 480 kts | 344° |
| 2026-05-04 03:16 | 23.72738 | -78.74380 | 34049 ft | 481 kts | 343° |
| 2026-05-04 03:17 | 23.79336 | -78.75637 | 34050 ft | 482 kts | 343° |
| 2026-05-04 03:17 | 23.85945 | -78.76898 | 34044 ft | 482 kts | 343° |
| 2026-05-04 03:18 | 23.92552 | -78.78159 | 34042 ft | 482 kts | 343° |
| 2026-05-04 03:18 | 23.99156 | -78.79464 | 34038 ft | 479 kts | 339° |
| 2026-05-04 03:18 | 24.02211 | -78.80739 | 34036 ft | 461 kts | 323° |
| 2026-05-04 03:19 | 24.04927 | -78.82564 | 34053 ft | 459 kts | 321° |
| 2026-05-04 03:19 | 24.10322 | -78.86312 | 34048 ft | 461 kts | 321° |
| 2026-05-04 03:20 | 24.15821 | -78.90037 | 34045 ft | 463 kts | 322° |
| 2026-05-04 03:20 | 24.21347 | -78.93706 | 34050 ft | 465 kts | 322° |
| 2026-05-04 03:21 | 24.26852 | -78.97347 | 34045 ft | 466 kts | 322° |
| 2026-05-04 03:21 | 24.32404 | -79.01027 | 34046 ft | 467 kts | 322° |
| 2026-05-04 03:22 | 24.37934 | -79.04694 | 34018 ft | 448 kts | 322° |
| 2026-05-04 03:22 | 24.40522 | -79.06408 | 34024 ft | 433 kts | 322° |
| 2026-05-04 03:22 | 24.43070 | -79.08103 | 33774 ft | 425 kts | 322° |
| 2026-05-04 03:22 | 24.45604 | -79.09794 | 33428 ft | 419 kts | 321° |
| 2026-05-04 03:23 | 24.48082 | -79.11447 | 33002 ft | 415 kts | 322° |
| 2026-05-04 03:23 | 24.50507 | -79.13063 | 32579 ft | 412 kts | 322° |
| 2026-05-04 03:23 | 24.52942 | -79.14685 | 32151 ft | 409 kts | 322° |
| 2026-05-04 03:23 | 24.55365 | -79.16299 | 31725 ft | 406 kts | 322° |
| 2026-05-04 03:24 | 24.57774 | -79.17904 | 31292 ft | 403 kts | 322° |
| 2026-05-04 03:24 | 24.60164 | -79.19499 | 30871 ft | 401 kts | 322° |
| 2026-05-04 03:24 | 24.62543 | -79.21087 | 30443 ft | 399 kts | 322° |
| 2026-05-04 03:24 | 24.64917 | -79.22673 | 29979 ft | 398 kts | 322° |
| 2026-05-04 03:25 | 24.67279 | -79.24252 | 29500 ft | 396 kts | 322° |
| 2026-05-04 03:25 | 24.69625 | -79.25820 | 29044 ft | 393 kts | 322° |
| 2026-05-04 03:25 | 24.71955 | -79.27379 | 28585 ft | 391 kts | 322° |
| 2026-05-04 03:25 | 24.74273 | -79.28930 | 28137 ft | 389 kts | 321° |
| 2026-05-04 03:26 | 24.76573 | -79.30470 | 27705 ft | 387 kts | 321° |
| 2026-05-04 03:26 | 24.78864 | -79.32005 | 27282 ft | 384 kts | 321° |
| 2026-05-04 03:26 | 24.81141 | -79.33530 | 26864 ft | 382 kts | 321° |
| 2026-05-04 03:26 | 24.83400 | -79.35043 | 26445 ft | 380 kts | 321° |
| 2026-05-04 03:27 | 24.85653 | -79.36553 | 26051 ft | 378 kts | 321° |
| 2026-05-04 03:27 | 24.87894 | -79.38055 | 25641 ft | 376 kts | 321° |
| 2026-05-04 03:27 | 24.90122 | -79.39550 | 25240 ft | 374 kts | 321° |
| 2026-05-04 03:27 | 24.92339 | -79.41039 | 24820 ft | 373 kts | 321° |
| 2026-05-04 03:28 | 24.94553 | -79.42526 | 24426 ft | 372 kts | 321° |
| 2026-05-04 03:28 | 24.96760 | -79.44010 | 24022 ft | 371 kts | 321° |
| 2026-05-04 03:28 | 24.98964 | -79.45492 | 23601 ft | 370 kts | 321° |
| 2026-05-04 03:28 | 25.01160 | -79.46969 | 23144 ft | 369 kts | 321° |
| 2026-05-04 03:29 | 25.03347 | -79.48441 | 22726 ft | 367 kts | 322° |
| 2026-05-04 03:29 | 25.05522 | -79.49905 | 22315 ft | 365 kts | 322° |
| 2026-05-04 03:29 | 25.07679 | -79.51357 | 21910 ft | 363 kts | 322° |
| 2026-05-04 03:29 | 25.09830 | -79.52805 | 21512 ft | 361 kts | 322° |
| 2026-05-04 03:30 | 25.11975 | -79.54250 | 21112 ft | 359 kts | 322° |
| 2026-05-04 03:30 | 25.14105 | -79.55686 | 20714 ft | 358 kts | 322° |
| 2026-05-04 03:30 | 25.16222 | -79.57113 | 20329 ft | 357 kts | 322° |
| 2026-05-04 03:30 | 25.18342 | -79.58543 | 19939 ft | 356 kts | 322° |
| 2026-05-04 03:31 | 25.20447 | -79.59965 | 19546 ft | 355 kts | 322° |
| 2026-05-04 03:31 | 25.22553 | -79.61388 | 19135 ft | 355 kts | 322° |
| 2026-05-04 03:31 | 25.24659 | -79.62811 | 18738 ft | 355 kts | 322° |
| 2026-05-04 03:31 | 25.26804 | -79.64266 | 18345 ft | 374 kts | 323° |
| 2026-05-04 03:32 | 25.29068 | -79.65802 | 18034 ft | 387 kts | 323° |
| 2026-05-04 03:32 | 25.31363 | -79.67352 | 17214 ft | 382 kts | 323° |
| 2026-05-04 03:32 | 25.33629 | -79.68877 | 16444 ft | 367 kts | 323° |
| 2026-05-04 03:32 | 25.35749 | -79.70305 | 15977 ft | 347 kts | 323° |
| 2026-05-04 03:33 | 25.37757 | -79.71662 | 15526 ft | 330 kts | 322° |
| 2026-05-04 03:33 | 25.39460 | -79.73234 | 15228 ft | 310 kts | 304° |
| 2026-05-04 03:33 | 25.40692 | -79.75127 | 15033 ft | 307 kts | 300° |
| 2026-05-04 03:33 | 25.41922 | -79.77103 | 14801 ft | 309 kts | 300° |
| 2026-05-04 03:34 | 25.43132 | -79.79034 | 14585 ft | 309 kts | 300° |
| 2026-05-04 03:34 | 25.44367 | -79.80982 | 14349 ft | 310 kts | 301° |
| 2026-05-04 03:34 | 25.45610 | -79.82930 | 14114 ft | 310 kts | 301° |
| 2026-05-04 03:34 | 25.46870 | -79.84896 | 13858 ft | 310 kts | 301° |
| 2026-05-04 03:35 | 25.48117 | -79.86841 | 13520 ft | 309 kts | 301° |
| 2026-05-04 03:35 | 25.49354 | -79.88771 | 13183 ft | 305 kts | 301° |
| 2026-05-04 03:35 | 25.50571 | -79.90667 | 12867 ft | 300 kts | 301° |
| 2026-05-04 03:35 | 25.51768 | -79.92536 | 12566 ft | 295 kts | 301° |
| 2026-05-04 03:36 | 25.52940 | -79.94366 | 12323 ft | 288 kts | 301° |
| 2026-05-04 03:36 | 25.54091 | -79.96167 | 12001 ft | 285 kts | 301° |
| 2026-05-04 03:36 | 25.55229 | -79.97947 | 11679 ft | 283 kts | 301° |
| 2026-05-04 03:36 | 25.56365 | -79.99726 | 11358 ft | 284 kts | 301° |
| 2026-05-04 03:37 | 25.57515 | -80.01528 | 11121 ft | 287 kts | 302° |
| 2026-05-04 03:37 | 25.58662 | -80.03322 | 10932 ft | 285 kts | 302° |
| 2026-05-04 03:37 | 25.59822 | -80.05142 | 10619 ft | 299 kts | 302° |
| 2026-05-04 03:37 | 25.61047 | -80.07065 | 10441 ft | 306 kts | 302° |
| 2026-05-04 03:38 | 25.62259 | -80.08959 | 9973 ft | 295 kts | 302° |
| 2026-05-04 03:38 | 25.63414 | -80.10765 | 9506 ft | 279 kts | 302° |
| 2026-05-04 03:38 | 25.64546 | -80.12541 | 9276 ft | 285 kts | 302° |
| 2026-05-04 03:38 | 25.65655 | -80.14331 | 9183 ft | 273 kts | 297° |
| 2026-05-04 03:39 | 25.66488 | -80.16162 | 8703 ft | 264 kts | 291° |
| 2026-05-04 03:39 | 25.67228 | -80.18008 | 8390 ft | 260 kts | 291° |
| 2026-05-04 03:39 | 25.67971 | -80.19824 | 8078 ft | 257 kts | 292° |
| 2026-05-04 03:39 | 25.68707 | -80.21591 | 8028 ft | 249 kts | 291° |
| 2026-05-04 03:40 | 25.69435 | -80.23333 | 7819 ft | 249 kts | 292° |
| 2026-05-04 03:40 | 25.70168 | -80.25073 | 7440 ft | 250 kts | 292° |
| 2026-05-04 03:40 | 25.70907 | -80.26832 | 6999 ft | 252 kts | 289° |
| 2026-05-04 03:40 | 25.71236 | -80.28699 | 6519 ft | 248 kts | 265° |
| 2026-05-04 03:41 | 25.71123 | -80.30617 | 6134 ft | 250 kts | 265° |
| 2026-05-04 03:41 | 25.71028 | -80.32537 | 5863 ft | 248 kts | 265° |
| 2026-05-04 03:41 | 25.70937 | -80.34440 | 5606 ft | 247 kts | 265° |
| 2026-05-04 03:41 | 25.70847 | -80.36339 | 5282 ft | 247 kts | 265° |
| 2026-05-04 03:42 | 25.70756 | -80.38236 | 5065 ft | 243 kts | 266° |
| 2026-05-04 03:42 | 25.70668 | -80.40084 | 5025 ft | 240 kts | 266° |
| 2026-05-04 03:42 | 25.70609 | -80.41314 | 4982 ft | 244 kts | 266° |
| 2026-05-04 03:42 | 25.70484 | -80.43855 | 4658 ft | 249 kts | 265° |
| 2026-05-04 03:43 | 25.70391 | -80.45127 | 4498 ft | 249 kts | 264° |
| 2026-05-04 03:43 | 25.70250 | -80.47042 | 4260 ft | 250 kts | 265° |
| 2026-05-04 03:43 | 25.70145 | -80.48960 | 4079 ft | 246 kts | 266° |
| 2026-05-04 03:43 | 25.70045 | -80.50857 | 4024 ft | 242 kts | 266° |
| 2026-05-04 03:44 | 25.69948 | -80.52717 | 3992 ft | 241 kts | 266° |
| 2026-05-04 03:44 | 25.69852 | -80.54532 | 3982 ft | 237 kts | 266° |
| 2026-05-04 03:44 | 25.69753 | -80.56379 | 3986 ft | 237 kts | 266° |
| 2026-05-04 03:44 | 25.69654 | -80.58211 | 3986 ft | 238 kts | 266° |
| 2026-05-04 03:45 | 25.69597 | -80.60050 | 3988 ft | 239 kts | 270° |
| 2026-05-04 03:45 | 25.69658 | -80.61896 | 3992 ft | 241 kts | 274° |
| 2026-05-04 03:45 | 25.69851 | -80.63740 | 3988 ft | 242 kts | 276° |
| 2026-05-04 03:45 | 25.70060 | -80.65594 | 3987 ft | 242 kts | 277° |
| 2026-05-04 03:46 | 25.70589 | -80.67333 | 3980 ft | 241 kts | 304° |
| 2026-05-04 03:46 | 25.71854 | -80.68532 | 3981 ft | 244 kts | 335° |
| 2026-05-04 03:46 | 25.73525 | -80.68846 | 3981 ft | 248 kts | 6° |
| 2026-05-04 03:46 | 25.75135 | -80.68176 | 3983 ft | 251 kts | 36° |
| 2026-05-04 03:47 | 25.76267 | -80.66712 | 3984 ft | 252 kts | 60° |
| 2026-05-04 03:47 | 25.77056 | -80.64970 | 3992 ft | 254 kts | 65° |
| 2026-05-04 03:47 | 25.77777 | -80.63211 | 3961 ft | 244 kts | 65° |
| 2026-05-04 03:47 | 25.78449 | -80.61545 | 3953 ft | 229 kts | 69° |
| 2026-05-04 03:48 | 25.78654 | -80.59832 | 3986 ft | 228 kts | 105° |
| 2026-05-04 03:48 | 25.78090 | -80.58197 | 4003 ft | 229 kts | 116° |
| 2026-05-04 03:48 | 25.77615 | -80.56522 | 3977 ft | 230 kts | 94° |
| 2026-05-04 03:48 | 25.77649 | -80.54752 | 4034 ft | 229 kts | 88° |
| 2026-05-04 03:49 | 25.77723 | -80.53005 | 3983 ft | 225 kts | 88° |
| 2026-05-04 03:49 | 25.77789 | -80.51280 | 3732 ft | 219 kts | 88° |
| 2026-05-04 03:49 | 25.77852 | -80.49653 | 3483 ft | 203 kts | 88° |
| 2026-05-04 03:49 | 25.77911 | -80.48116 | 3077 ft | 197 kts | 88° |
| 2026-05-04 03:50 | 25.77976 | -80.46625 | 2726 ft | 188 kts | 88° |
| 2026-05-04 03:50 | 25.78039 | -80.45225 | 2487 ft | 179 kts | 88° |
| 2026-05-04 03:50 | 25.78098 | -80.43829 | 2272 ft | 182 kts | 88° |
| 2026-05-04 03:50 | 25.78155 | -80.42458 | 2007 ft | 173 kts | 89° |
| 2026-05-04 03:51 | 25.78209 | -80.41164 | 1778 ft | 164 kts | 88° |
| 2026-05-04 03:51 | 25.78260 | -80.39905 | 1586 ft | 164 kts | 88° |
| 2026-05-04 03:51 | 25.78313 | -80.38636 | 1365 ft | 165 kts | 88° |
| 2026-05-04 03:51 | 25.78365 | -80.37363 | 1156 ft | 165 kts | 87° |
| 2026-05-04 03:52 | 25.78418 | -80.36098 | 941 ft | 164 kts | 87° |
| 2026-05-04 03:52 | 25.78470 | -80.34848 | 727 ft | 160 kts | 86° |
| 2026-05-04 03:52 | 25.78520 | -80.33625 | 511 ft | 158 kts | 86° |
| 2026-05-04 03:52 | 25.78569 | -80.32405 | 291 ft | 158 kts | 86° |
| 2026-05-04 03:53 | 25.78620 | -80.31193 | 59 ft | 156 kts | 85° |
| 2026-05-04 03:53 | 25.78678 | -80.30049 | 20 ft | 135 kts | 88° |
| 2026-05-04 03:53 | 25.78708 | -80.29180 | 27 ft | 90 kts | 87° |
| 2026-05-04 03:53 | 25.78768 | -80.28730 | 25 ft | 27 kts | 56° |
| 2026-05-04 03:54 | 25.78877 | -80.28678 | 19 ft | 18 kts | 1° |
| 2026-05-04 03:54 | 25.78952 | -80.28745 | 18 ft | 14 kts | 269° |
| 2026-05-04 03:54 | 25.78950 | -80.28856 | 19 ft | 14 kts | 268° |
| 2026-05-04 03:54 | 25.78926 | -80.28963 | 22 ft | 14 kts | 251° |
| 2026-05-04 03:55 | 25.78906 | -80.29072 | 20 ft | 14 kts | 266° |
| 2026-05-04 03:55 | 25.78900 | -80.29183 | 19 ft | 14 kts | 266° |
| 2026-05-04 03:55 | 25.78896 | -80.29295 | 20 ft | 14 kts | 267° |
| 2026-05-04 03:55 | 25.78891 | -80.29406 | 23 ft | 14 kts | 267° |
| 2026-05-04 03:56 | 25.78887 | -80.29517 | 28 ft | 14 kts | 268° |
| 2026-05-04 03:56 | 25.78884 | -80.29628 | 28 ft | 14 kts | 268° |
| 2026-05-04 03:56 | 25.78881 | -80.29740 | 23 ft | 15 kts | 265° |
| 2026-05-04 03:56 | 25.78873 | -80.29852 | 26 ft | 15 kts | 266° |
| 2026-05-04 03:57 | 25.78868 | -80.29965 | 28 ft | 15 kts | 268° |
| 2026-05-04 03:57 | 25.78872 | -80.30084 | 28 ft | 14 kts | 294° |
| 2026-05-04 03:57 | 25.78949 | -80.30120 | 28 ft | 12 kts | 358° |
| 2026-05-04 03:57 | 25.79031 | -80.30124 | 30 ft | 8 kts | 358° |
| 2026-05-04 03:58 | 25.79088 | -80.30090 | 29 ft | 4 kts | 76° |
| 2026-05-04 03:58 | 25.79090 | -80.30068 | 26 ft | 2 kts | 85° |
| 2026-05-04 03:58 | 25.79091 | -80.30056 | 29 ft | 1 kts | 86° |